createdAt,value
2023-04-21T00:00:01.134Z,31.15
2023-04-21T00:05:02.984Z,32.85
2023-04-21T00:10:07.354Z,35.65
2023-04-21T00:15:09.845Z,37.45
2023-04-21T00:20:11.935Z,32.03
2023-04-21T00:25:14.972Z,31.88
2023-04-21T00:30:16.768Z,30.30
2023-04-21T00:35:18.233Z,29.77
2023-04-21T00:40:20.459Z,26.30
2023-04-21T00:45:21.866Z,25.92
2023-04-21T00:50:23.554Z,27.60
2023-04-21T00:55:25.534Z,32.85
2023-04-21T01:00:27.049Z,30.88
2023-04-21T01:05:28.517Z,28.67
2023-04-21T01:10:30.044Z,28.35
2023-04-21T01:15:31.531Z,34.25
2023-04-21T01:20:33.140Z,28.90
2023-04-21T01:25:34.574Z,29.02
2023-04-21T01:30:36.029Z,25.90
2023-04-21T01:35:37.503Z,27.35
2023-04-21T01:40:41.835Z,24.35
2023-04-21T01:45:43.316Z,30.48
2023-04-21T01:50:44.805Z,28.38
2023-04-21T01:55:46.320Z,25.25
2023-04-21T02:00:47.805Z,24.10
2023-04-21T02:05:50.936Z,28.23
2023-04-21T02:10:52.370Z,24.88
2023-04-21T02:16:02.720Z,25.92
2023-04-21T02:21:13.993Z,29.42
2023-04-21T02:26:15.720Z,29.95
2023-04-21T02:31:18.771Z,79.35
2023-04-21T02:36:20.780Z,46.30
2023-04-21T02:41:23.281Z,48.15
2023-04-21T02:46:24.754Z,47.72
2023-04-21T02:51:26.856Z,47.88
2023-04-21T02:56:28.326Z,47.88
2023-04-21T03:01:29.754Z,36.85
2023-04-21T03:06:33.153Z,37.92
2023-04-21T03:11:34.577Z,35.92
2023-04-21T03:16:36.021Z,36.33
2023-04-21T03:21:39.009Z,35.85
2023-04-21T03:26:41.065Z,38.05
2023-04-21T03:31:42.513Z,42.80
2023-04-21T03:36:44.040Z,43.58
2023-04-21T03:41:45.621Z,41.67
2023-04-21T03:46:47.050Z,40.30
2023-04-21T03:51:48.510Z,39.58
2023-04-21T03:56:49.918Z,36.85
2023-04-21T04:01:51.348Z,35.22
2023-04-21T04:06:52.810Z,38.28
2023-04-21T04:11:54.234Z,41.75
2023-04-21T04:16:55.660Z,38.00
2023-04-21T04:21:59.738Z,36.75
2023-04-21T04:27:02.981Z,38.78
2023-04-21T04:32:06.569Z,40.75
2023-04-21T04:37:11.133Z,36.03
2023-04-21T04:42:12.669Z,39.78
2023-04-21T04:47:14.109Z,34.67
2023-04-21T04:52:15.647Z,34.40
2023-04-21T04:57:17.070Z,33.17
2023-04-21T05:02:18.693Z,36.47
2023-04-21T05:07:20.809Z,35.60
2023-04-21T05:12:22.322Z,32.50
2023-04-21T05:17:23.807Z,31.45
2023-04-21T05:22:25.919Z,27.50
2023-04-21T05:27:27.518Z,29.23
2023-04-21T05:32:29.503Z,30.33
2023-04-21T05:37:31.122Z,28.40
2023-04-21T05:42:32.569Z,30.48
2023-04-21T05:47:34.010Z,31.15
2023-04-21T05:52:37.198Z,25.55
2023-04-21T05:57:38.698Z,22.20
2023-04-21T06:02:40.366Z,26.58
2023-04-21T06:07:42.004Z,27.35
2023-04-21T06:12:43.413Z,26.65
2023-04-21T06:17:44.902Z,24.23
2023-04-21T06:22:46.393Z,32.60
2023-04-21T06:27:48.084Z,33.00
2023-04-21T06:32:49.644Z,26.80
2023-04-21T06:37:51.118Z,27.20
2023-04-21T06:42:52.539Z,24.88
2023-04-21T06:47:53.962Z,25.55
2023-04-21T06:52:55.528Z,28.45
2023-04-21T06:57:57.055Z,29.52
2023-04-21T07:02:58.606Z,28.90
2023-04-21T07:08:00.382Z,25.33
2023-04-21T07:13:01.817Z,26.85
2023-04-21T07:18:03.402Z,27.48
2023-04-21T07:23:04.989Z,35.03
2023-04-21T07:28:06.641Z,33.70
2023-04-21T07:33:09.055Z,29.55
2023-04-21T07:38:10.653Z,33.10
2023-04-21T07:43:12.087Z,32.30
2023-04-21T07:48:13.628Z,33.08
2023-04-21T07:53:15.107Z,28.00
2023-04-21T07:58:16.957Z,28.63
2023-04-21T08:03:18.696Z,29.40
2023-04-21T08:08:21.971Z,24.55
2023-04-21T08:13:25.330Z,24.85
2023-04-21T08:18:26.820Z,24.52
2023-04-21T08:28:32.159Z,24.65
2023-04-21T08:33:33.579Z,26.15
2023-04-21T08:38:35.625Z,26.02
2023-04-21T08:43:37.140Z,21.48
2023-04-21T08:48:39.078Z,25.08
2023-04-21T08:53:41.423Z,20.00
2023-04-21T08:58:42.870Z,19.48
2023-04-21T09:03:44.502Z,20.20
2023-04-21T09:08:56.372Z,20.02
2023-04-21T09:13:58.454Z,20.63
2023-04-21T09:19:00.508Z,22.80
2023-04-21T09:24:05.903Z,27.83
2023-04-21T09:29:08.898Z,19.10
2023-04-21T09:34:26.940Z,20.48
2023-04-21T09:39:43.214Z,18.90
2023-04-21T09:44:59.601Z,15.98
2023-04-21T09:50:13.462Z,16.25
2023-04-21T09:55:16.043Z,17.92
2023-04-21T10:00:22.116Z,16.83
2023-04-21T10:05:23.701Z,16.85
2023-04-21T10:10:33.338Z,15.95
2023-04-21T10:15:38.761Z,19.63
2023-04-21T10:20:58.380Z,17.60
2023-04-21T10:26:15.212Z,14.00
2023-04-21T10:31:21.601Z,16.95
2023-04-21T10:36:25.255Z,13.13
2023-04-21T10:41:34.026Z,15.95
2023-04-21T10:52:00.075Z,12.30
2023-04-21T10:57:01.642Z,12.43
2023-04-21T11:02:04.999Z,10.02
2023-04-21T11:07:17.512Z,11.98
2023-04-21T11:12:18.972Z,11.63
2023-04-21T11:17:21.878Z,10.27
2023-04-21T11:22:24.800Z,10.63
2023-04-21T11:27:28.028Z,12.15
2023-04-21T11:32:29.623Z,10.25
2023-04-21T11:37:31.880Z,12.63
2023-04-21T11:42:33.472Z,14.05
2023-04-21T11:47:34.975Z,12.65
2023-04-21T11:52:37.724Z,10.90
2023-04-21T11:57:40.577Z,12.52
2023-04-21T12:02:43.393Z,11.27
2023-04-21T12:07:47.959Z,13.95
2023-04-21T12:12:49.445Z,13.13
2023-04-21T12:17:53.312Z,12.30
2023-04-21T12:22:56.412Z,11.63
2023-04-21T12:27:59.240Z,13.30
2023-04-21T12:33:01.263Z,11.43
2023-04-21T12:38:02.909Z,11.13
2023-04-21T12:43:04.430Z,11.40
2023-04-21T12:48:06.675Z,15.15
2023-04-21T12:53:08.177Z,13.70
2023-04-21T12:58:09.764Z,9.98
2023-04-21T13:03:11.282Z,12.18
2023-04-21T13:08:12.953Z,9.80
2023-04-21T13:13:14.457Z,13.48
2023-04-21T13:18:15.966Z,13.05
2023-04-21T13:23:17.435Z,11.65
2023-04-21T13:28:19.621Z,10.63
2023-04-21T13:33:21.507Z,10.98
2023-04-21T13:38:22.979Z,11.63
2023-04-21T13:43:24.755Z,10.65
2023-04-21T13:48:26.700Z,10.35
2023-04-21T13:53:28.113Z,10.55
2023-04-21T13:58:30.847Z,8.50
2023-04-21T14:03:32.455Z,11.05
2023-04-21T14:08:34.077Z,7.80
2023-04-21T14:13:44.670Z,9.40
2023-04-21T14:18:49.444Z,9.02
2023-04-21T14:23:51.039Z,10.30
2023-04-21T14:28:52.474Z,9.23
2023-04-21T14:33:53.948Z,10.32
2023-04-21T14:38:55.686Z,8.57
2023-04-21T14:43:57.847Z,8.63
2023-04-21T14:48:59.411Z,9.02
2023-04-21T14:54:00.912Z,8.57
2023-04-21T14:59:02.499Z,9.20
2023-04-21T15:04:04.267Z,9.98
2023-04-21T15:09:06.009Z,13.75
2023-04-21T15:14:07.512Z,8.65
2023-04-21T15:19:09.166Z,10.07
2023-04-21T15:24:10.833Z,36.85
2023-04-21T15:29:12.257Z,15.52
2023-04-21T15:34:13.689Z,23.42
2023-04-21T15:39:15.262Z,13.98
2023-04-21T15:44:16.748Z,10.55
2023-04-21T15:49:18.198Z,9.45
2023-04-21T15:54:19.730Z,9.77
2023-04-21T15:59:22.426Z,12.85
2023-04-21T16:04:25.650Z,12.57
2023-04-21T16:09:27.283Z,15.57
2023-04-21T16:14:36.217Z,24.73
2023-04-21T16:19:45.580Z,16.75
2023-04-21T16:24:47.237Z,15.05
2023-04-21T16:29:50.217Z,11.15
2023-04-21T16:34:51.748Z,12.88
2023-04-21T16:39:53.255Z,14.15
2023-04-21T16:44:58.934Z,21.05
2023-04-21T16:50:00.479Z,16.15
2023-04-21T16:55:02.005Z,42.05
2023-04-21T17:00:07.029Z,27.38
2023-04-21T17:05:09.048Z,11.15
2023-04-21T17:10:10.784Z,26.42
2023-04-21T17:15:12.214Z,22.73
2023-04-21T17:20:14.709Z,18.77
2023-04-21T17:25:16.168Z,21.52
2023-04-21T17:30:18.933Z,16.77
2023-04-21T17:35:20.393Z,12.02
2023-04-21T17:40:22.239Z,18.88
2023-04-21T17:45:23.701Z,20.23
2023-04-21T17:50:27.402Z,17.73
2023-04-21T17:55:28.965Z,18.63
2023-04-21T18:00:34.380Z,16.42
2023-04-21T18:05:35.849Z,21.80
2023-04-21T18:10:37.695Z,19.98
2023-04-21T18:15:39.332Z,15.32
2023-04-21T18:20:40.810Z,13.98
2023-04-21T18:25:43.172Z,10.35
2023-04-21T18:30:44.909Z,13.52
2023-04-21T18:35:46.719Z,16.17
2023-04-21T18:40:48.201Z,14.93
2023-04-21T18:45:49.623Z,22.77
2023-04-21T18:50:51.138Z,43.67
2023-04-21T18:55:53.017Z,27.75
2023-04-21T19:00:54.759Z,14.23
2023-04-21T19:05:56.260Z,16.77
2023-04-21T19:10:57.827Z,16.05
2023-04-21T19:15:59.365Z,15.48
2023-04-21T19:21:00.869Z,17.80
2023-04-21T19:26:05.100Z,14.98
2023-04-21T19:31:06.983Z,15.82
2023-04-21T19:36:09.398Z,14.10
2023-04-21T19:41:10.893Z,14.98
2023-04-21T19:46:12.390Z,18.40
2023-04-21T19:51:13.853Z,20.83
2023-04-21T19:56:15.652Z,20.75
2023-04-21T20:01:17.112Z,26.42
2023-04-21T20:06:19.567Z,23.00
2023-04-21T20:11:21.404Z,24.10
2023-04-21T20:16:23.852Z,26.33
2023-04-21T20:21:25.615Z,29.17
2023-04-21T20:26:27.152Z,30.55
2023-04-21T20:31:28.977Z,27.65
2023-04-21T20:36:30.526Z,30.30
2023-04-21T20:41:32.742Z,27.38
2023-04-21T20:46:34.224Z,27.70
2023-04-21T20:51:41.899Z,31.30
2023-04-21T20:56:43.341Z,27.90
2023-04-21T21:01:46.019Z,25.25
2023-04-21T21:06:47.504Z,22.10
2023-04-21T21:11:48.923Z,23.42
2023-04-21T21:16:54.286Z,21.15
2023-04-21T21:21:55.978Z,21.85
2023-04-21T21:26:58.118Z,24.35
2023-04-21T21:31:59.578Z,28.13
2023-04-21T21:37:01.047Z,23.42
2023-04-21T21:42:02.514Z,23.25
2023-04-21T21:47:04.256Z,29.60
2023-04-21T21:52:05.843Z,21.65
2023-04-21T21:57:07.279Z,27.42
2023-04-21T22:02:08.765Z,22.35
2023-04-21T22:07:10.515Z,25.77
2023-04-21T22:12:12.094Z,21.08
2023-04-21T22:17:14.421Z,22.17
2023-04-21T22:22:16.009Z,22.40
2023-04-21T22:27:17.577Z,23.33
2023-04-21T22:32:19.052Z,20.70
2023-04-21T22:37:20.468Z,22.13
2023-04-21T22:42:21.891Z,25.85
2023-04-21T22:47:23.732Z,26.92
2023-04-21T22:52:28.384Z,26.42
2023-04-21T22:57:29.829Z,25.30
2023-04-21T23:02:31.499Z,26.88
2023-04-21T23:07:33.323Z,29.13
2023-04-21T23:12:34.918Z,27.20
2023-04-21T23:17:36.408Z,28.65
2023-04-21T23:22:38.056Z,30.27
2023-04-21T23:27:39.479Z,29.98
2023-04-21T23:32:41.446Z,28.35
2023-04-21T23:37:43.098Z,32.42
2023-04-21T23:42:47.489Z,30.90
2023-04-21T23:47:49.297Z,26.90
2023-04-21T23:52:50.778Z,26.90
2023-04-21T23:57:52.195Z,23.73
